createdAt,value
2024-03-08T00:00:34.428Z,101108.06
2024-03-08T00:03:04.372Z,101103.81
2024-03-08T00:05:33.788Z,101100.25
2024-03-08T00:08:02.633Z,101098.28
2024-03-08T00:10:30.890Z,101099.91
2024-03-08T00:12:59.156Z,101092.81
2024-03-08T00:15:27.391Z,101082.53
2024-03-08T00:17:55.405Z,101091.13
2024-03-08T00:20:24.766Z,101088.53
2024-03-08T00:22:52.602Z,101086.72
2024-03-08T00:25:21.079Z,101084.13
2024-03-08T00:27:50.619Z,101076.47
2024-03-08T00:30:18.795Z,101075.50
2024-03-08T00:32:47.099Z,101076.31
2024-03-08T00:35:15.123Z,101071.97
2024-03-08T00:37:44.484Z,101070.13
2024-03-08T00:40:13.233Z,101071.56
2024-03-08T00:42:42.607Z,101064.91
2024-03-08T00:45:11.974Z,101066.69
2024-03-08T00:47:40.665Z,101066.66
2024-03-08T00:50:09.582Z,101057.25
2024-03-08T00:52:37.917Z,101067.66
2024-03-08T00:55:09.166Z,101056.50
2024-03-08T00:57:37.138Z,101053.03
2024-03-08T01:00:06.800Z,101047.88
2024-03-08T01:02:36.809Z,101045.22
2024-03-08T01:05:07.085Z,101041.84
2024-03-08T01:07:35.111Z,101041.06
2024-03-08T01:10:03.151Z,101040.22
2024-03-08T01:12:32.447Z,101038.53
2024-03-08T01:15:00.467Z,101037.53
2024-03-08T01:17:28.608Z,101035.78
2024-03-08T01:19:56.573Z,101029.69
2024-03-08T01:22:24.793Z,101022.91
2024-03-08T01:24:52.702Z,101025.50
2024-03-08T01:27:20.540Z,101023.75
2024-03-08T01:29:50.091Z,101010.78
2024-03-08T01:32:18.198Z,101002.22
2024-03-08T01:34:46.809Z,101002.16
2024-03-08T01:37:15.668Z,101000.34
2024-03-08T01:39:43.653Z,100994.19
2024-03-08T01:42:13.792Z,100997.78
2024-03-08T01:44:41.718Z,100996.06
2024-03-08T01:47:11.092Z,100987.34
2024-03-08T01:49:39.527Z,100996.06
2024-03-08T01:52:08.314Z,100986.56
2024-03-08T01:54:37.796Z,100985.69
2024-03-08T01:57:06.123Z,100983.91
2024-03-08T01:59:34.406Z,100981.34
2024-03-08T02:02:04.298Z,100975.34
2024-03-08T02:04:34.057Z,100967.59
2024-03-08T02:07:01.930Z,100964.91
2024-03-08T02:09:30.084Z,100964.84
2024-03-08T02:11:59.536Z,100957.06
2024-03-08T02:14:33.059Z,100956.25
2024-03-08T02:17:03.250Z,100956.19
2024-03-08T02:19:31.298Z,100957.84
2024-03-08T02:22:00.907Z,100950.09
2024-03-08T02:24:28.803Z,100956.13
2024-03-08T02:26:57.649Z,100943.16
2024-03-08T02:29:26.658Z,100950.03
2024-03-08T02:31:54.713Z,100954.28
2024-03-08T02:34:22.612Z,100945.69
2024-03-08T02:36:50.485Z,100943.88
2024-03-08T02:39:20.960Z,100949.16
2024-03-08T02:41:48.934Z,100949.97
2024-03-08T02:44:17.043Z,100946.41
2024-03-08T02:46:44.899Z,100941.19
2024-03-08T02:49:12.866Z,100941.19
2024-03-08T02:51:41.691Z,100932.63
2024-03-08T02:54:11.546Z,100929.16
2024-03-08T02:56:41.097Z,100922.19
2024-03-08T02:59:09.779Z,100931.69
2024-03-08T03:01:37.736Z,100921.31
2024-03-08T03:04:06.008Z,100923.06
2024-03-08T03:06:34.837Z,100922.94
2024-03-08T03:09:02.824Z,100922.03
2024-03-08T03:11:30.836Z,100909.06
2024-03-08T03:14:00.141Z,100923.66
2024-03-08T03:16:28.000Z,100919.34
2024-03-08T03:18:57.154Z,100921.06
2024-03-08T03:21:25.113Z,100918.41
2024-03-08T03:23:53.912Z,100926.13
2024-03-08T03:26:23.040Z,100926.91
2024-03-08T03:28:50.940Z,100919.09
2024-03-08T03:31:20.268Z,100915.59
2024-03-08T03:33:48.387Z,100916.31
2024-03-08T03:36:17.618Z,100912.06
2024-03-08T03:38:45.703Z,100919.78
2024-03-08T03:41:15.470Z,100914.63
2024-03-08T03:43:43.400Z,100912.94
2024-03-08T03:46:11.894Z,100904.28
2024-03-08T03:48:44.636Z,100909.31
2024-03-08T03:51:12.723Z,100907.59
2024-03-08T03:53:40.769Z,100898.97
2024-03-08T03:56:08.953Z,100897.28
2024-03-08T03:58:37.613Z,100899.88
2024-03-08T04:01:07.391Z,100900.78
2024-03-08T04:03:35.409Z,100895.50
2024-03-08T04:06:05.785Z,100891.19
2024-03-08T04:08:35.280Z,100892.13
2024-03-08T04:11:03.669Z,100883.53
2024-03-08T04:13:31.513Z,100888.69
2024-03-08T04:15:59.326Z,100891.25
2024-03-08T04:18:27.352Z,100889.53
2024-03-08T04:20:55.291Z,100883.50
2024-03-08T04:23:24.622Z,100885.97
2024-03-08T04:25:52.425Z,100882.56
2024-03-08T04:28:20.323Z,100885.19
2024-03-08T04:30:48.257Z,100874.81
2024-03-08T04:33:17.669Z,100869.72
2024-03-08T04:35:47.160Z,100866.22
2024-03-08T04:38:15.271Z,100873.06
2024-03-08T04:40:44.711Z,100878.16
2024-03-08T04:43:13.494Z,100868.63
2024-03-08T04:45:43.454Z,100869.50
2024-03-08T04:48:12.909Z,100864.25
2024-03-08T04:50:41.184Z,100866.00
2024-03-08T04:53:09.844Z,100864.25
2024-03-08T04:55:38.557Z,100858.19
2024-03-08T04:58:08.074Z,100859.97
2024-03-08T05:00:36.352Z,100860.66
2024-03-08T05:03:06.003Z,100862.41
2024-03-08T05:05:34.504Z,100850.44
2024-03-08T05:08:03.925Z,100850.38
2024-03-08T05:10:32.090Z,100847.75
2024-03-08T05:13:00.044Z,100840.78
2024-03-08T05:15:29.344Z,100844.22
2024-03-08T05:17:59.166Z,100841.66
2024-03-08T05:20:27.265Z,100833.94
2024-03-08T05:22:55.177Z,100840.78
2024-03-08T05:25:23.339Z,100838.16
2024-03-08T05:27:51.300Z,100840.78
2024-03-08T05:30:19.575Z,100838.19
2024-03-08T05:32:48.986Z,100836.59
2024-03-08T05:35:17.638Z,100839.91
2024-03-08T05:37:45.897Z,100844.25
2024-03-08T05:40:17.219Z,100837.34
2024-03-08T05:42:46.954Z,100838.97
2024-03-08T05:45:16.292Z,100839.66
2024-03-08T05:47:44.368Z,100834.44
2024-03-08T05:50:13.768Z,100830.81
2024-03-08T05:52:41.815Z,100827.34
2024-03-08T05:55:11.328Z,100826.41
2024-03-08T05:57:41.240Z,100828.91
2024-03-08T06:00:12.285Z,100824.56
2024-03-08T06:02:43.143Z,100828.84
2024-03-08T06:05:13.233Z,100825.38
2024-03-08T06:07:41.728Z,100825.94
2024-03-08T06:10:14.126Z,100829.22
2024-03-08T06:12:42.722Z,100832.38
2024-03-08T06:15:15.831Z,100832.38
2024-03-08T06:17:44.414Z,100821.22
2024-03-08T06:20:14.816Z,100818.72
2024-03-08T06:22:43.202Z,100816.88
2024-03-08T06:25:12.420Z,100805.69
2024-03-08T06:27:40.480Z,100809.22
2024-03-08T06:30:11.176Z,100809.28
2024-03-08T06:32:39.728Z,100808.47
2024-03-08T06:35:09.345Z,100803.41
2024-03-08T06:37:41.504Z,100806.09
2024-03-08T06:40:14.649Z,100800.44
2024-03-08T06:42:44.260Z,100806.16
2024-03-08T06:45:13.747Z,100798.91
2024-03-08T06:47:42.942Z,100802.09
2024-03-08T06:50:12.500Z,100789.56
2024-03-08T06:52:43.569Z,100799.44
2024-03-08T06:55:13.219Z,100799.81
2024-03-08T06:57:41.812Z,100809.53
2024-03-08T07:00:12.928Z,100797.66
2024-03-08T07:02:41.916Z,100801.38
2024-03-08T07:05:11.595Z,100805.00
2024-03-08T07:07:42.518Z,100801.78
2024-03-08T07:10:12.226Z,100792.75
2024-03-08T07:12:40.428Z,100794.41
2024-03-08T07:15:09.485Z,100786.19
2024-03-08T07:17:38.024Z,100790.63
2024-03-08T07:20:12.103Z,100777.00
2024-03-08T07:22:42.588Z,100782.97
2024-03-08T07:25:22.868Z,100787.41
2024-03-08T07:27:52.544Z,100783.25
2024-03-08T07:30:34.745Z,100778.19
2024-03-08T07:33:03.962Z,100775.53
2024-03-08T07:35:32.278Z,100775.53
2024-03-08T07:38:01.663Z,100767.09
2024-03-08T07:40:29.617Z,100768.09
2024-03-08T07:42:57.745Z,100761.22
2024-03-08T07:45:25.674Z,100765.53
2024-03-08T07:47:54.672Z,100760.41
2024-03-08T07:50:23.928Z,100760.34
2024-03-08T07:52:52.142Z,100753.53
2024-03-08T07:55:21.453Z,100750.00
2024-03-08T07:57:49.760Z,100742.25
2024-03-08T08:00:19.879Z,100746.44
2024-03-08T08:02:47.910Z,100737.91
2024-03-08T08:05:16.081Z,100740.47
2024-03-08T08:07:48.539Z,100731.84
2024-03-08T08:10:19.737Z,100740.38
2024-03-08T08:12:49.326Z,100728.31
2024-03-08T08:15:17.730Z,100735.31
2024-03-08T08:17:46.031Z,100730.13
2024-03-08T08:20:14.888Z,100730.94
2024-03-08T08:22:44.287Z,100732.66
2024-03-08T08:25:14.287Z,100717.91
2024-03-08T08:27:43.774Z,100714.34
2024-03-08T08:30:14.893Z,100707.25
2024-03-08T08:32:43.548Z,100688.75
2024-03-08T08:35:13.630Z,100693.13
2024-03-08T08:37:41.859Z,100689.75
2024-03-08T08:40:11.905Z,100680.06
2024-03-08T08:42:39.931Z,100687.41
2024-03-08T08:45:15.830Z,100676.00
2024-03-08T08:47:48.066Z,100677.06
2024-03-08T08:50:17.210Z,100665.59
2024-03-08T08:52:45.354Z,100665.03
2024-03-08T08:55:15.682Z,100669.75
2024-03-08T08:57:44.014Z,100666.59
2024-03-08T09:00:16.277Z,100672.09
2024-03-08T09:02:44.668Z,100653.69
2024-03-08T09:05:17.717Z,100656.91
2024-03-08T09:07:46.746Z,100655.88
2024-03-08T09:10:17.406Z,100649.06
2024-03-08T09:12:47.058Z,100654.75
2024-03-08T09:15:15.361Z,100660.19
2024-03-08T09:17:44.298Z,100646.72
2024-03-08T09:20:16.121Z,100643.59
2024-03-08T09:22:46.992Z,100641.34
2024-03-08T09:25:15.323Z,100635.06
2024-03-08T09:27:43.303Z,100636.56
2024-03-08T09:30:14.375Z,100627.72
2024-03-08T09:32:42.541Z,100637.72
2024-03-08T09:35:12.197Z,100626.22
2024-03-08T09:37:41.442Z,100620.81
2024-03-08T09:40:11.946Z,100610.13
2024-03-08T09:42:40.010Z,100614.00
2024-03-08T09:45:11.826Z,100610.88
2024-03-08T09:47:42.845Z,100611.75
2024-03-08T09:50:13.682Z,100597.25
2024-03-08T09:52:45.393Z,100587.78
2024-03-08T09:55:13.932Z,100586.22
2024-03-08T09:57:43.812Z,100583.28
2024-03-08T10:00:19.809Z,100595.66
2024-03-08T10:02:47.968Z,100582.16
2024-03-08T10:05:16.106Z,100591.63
2024-03-08T10:07:45.380Z,100573.63
2024-03-08T10:10:13.700Z,100578.03
2024-03-08T10:12:41.808Z,100578.78
2024-03-08T10:15:10.552Z,100571.09
2024-03-08T10:17:38.789Z,100559.56
2024-03-08T10:20:16.728Z,100583.69
2024-03-08T10:22:57.842Z,100556.84
2024-03-08T10:25:31.641Z,100542.75
2024-03-08T10:27:59.528Z,100546.28
2024-03-08T10:30:27.562Z,100553.50
2024-03-08T10:32:55.827Z,100544.38
2024-03-08T10:35:23.949Z,100550.47
2024-03-08T10:38:00.681Z,100526.13
2024-03-08T10:40:30.288Z,100542.00
2024-03-08T10:42:59.966Z,100535.59
2024-03-08T10:45:38.098Z,100535.19
2024-03-08T10:48:35.654Z,100537.94
2024-03-08T10:51:08.385Z,100527.50
2024-03-08T10:53:42.507Z,100523.19
2024-03-08T10:56:11.546Z,100517.06
2024-03-08T10:58:40.465Z,100525.50
2024-03-08T11:01:08.557Z,100537.19
2024-03-08T11:03:54.502Z,100530.66
2024-03-08T11:06:31.558Z,100516.13
2024-03-08T11:09:01.452Z,100510.47
2024-03-08T11:11:34.475Z,100507.72
2024-03-08T11:14:05.857Z,100508.41
2024-03-08T11:16:42.830Z,100502.19
2024-03-08T11:19:27.167Z,100494.53
2024-03-08T11:22:02.588Z,100494.44
2024-03-08T11:24:40.956Z,100494.50
2024-03-08T11:27:10.941Z,100488.56
2024-03-08T11:29:40.959Z,100480.28
2024-03-08T11:32:14.330Z,100485.44
2024-03-08T11:34:45.765Z,100475.47
2024-03-08T11:37:16.123Z,100469.72
2024-03-08T11:39:50.738Z,100463.56
2024-03-08T11:42:19.557Z,100468.38
2024-03-08T11:44:48.774Z,100481.31
2024-03-08T11:47:18.146Z,100468.28
2024-03-08T11:49:48.827Z,100461.66
2024-03-08T11:52:18.139Z,100452.66
2024-03-08T11:54:59.024Z,100456.03
2024-03-08T11:57:29.772Z,100444.22
2024-03-08T11:59:58.682Z,100432.38
2024-03-08T12:02:28.788Z,100439.59
2024-03-08T12:05:01.679Z,100424.75
2024-03-08T12:07:30.219Z,100432.84
2024-03-08T12:10:19.920Z,100427.19
2024-03-08T12:12:48.791Z,100415.75
2024-03-08T12:15:19.160Z,100411.78
2024-03-08T12:17:49.486Z,100412.25
2024-03-08T12:20:19.469Z,100423.66
2024-03-08T12:22:47.581Z,100416.56
2024-03-08T12:25:17.383Z,100409.50
2024-03-08T12:27:46.936Z,100408.56
2024-03-08T12:30:21.246Z,100403.22
2024-03-08T12:32:53.191Z,100426.91
2024-03-08T12:35:23.195Z,100398.94
2024-03-08T12:37:53.147Z,100387.38
2024-03-08T12:40:22.531Z,100378.94
2024-03-08T12:42:51.862Z,100367.69
2024-03-08T12:45:19.972Z,100373.06
2024-03-08T12:47:49.234Z,100367.31
2024-03-08T12:50:17.977Z,100365.69
2024-03-08T12:52:46.656Z,100369.22
2024-03-08T12:55:15.414Z,100358.34
2024-03-08T12:57:43.503Z,100355.81
2024-03-08T13:00:20.006Z,100362.25
2024-03-08T13:02:48.229Z,100354.22
2024-03-08T13:05:16.406Z,100345.41
2024-03-08T13:07:47.686Z,100343.09
2024-03-08T13:10:16.825Z,100350.03
2024-03-08T13:12:44.996Z,100347.41
2024-03-08T13:15:17.232Z,100346.59
2024-03-08T13:17:47.742Z,100329.41
2024-03-08T13:20:27.793Z,100332.97
2024-03-08T13:23:02.734Z,100328.22
2024-03-08T13:25:30.825Z,100319.44
2024-03-08T13:28:00.558Z,100307.38
2024-03-08T13:30:31.881Z,100301.44
2024-03-08T13:33:00.042Z,100296.13
2024-03-08T13:35:29.406Z,100294.19
2024-03-08T13:37:57.442Z,100293.97
2024-03-08T13:40:25.625Z,100280.81
2024-03-08T13:42:53.797Z,100300.22
2024-03-08T13:45:24.850Z,100290.38
2024-03-08T13:47:56.029Z,100282.41
2024-03-08T13:50:24.831Z,100285.59
2024-03-08T13:52:55.539Z,100268.00
2024-03-08T13:55:26.921Z,100274.34
2024-03-08T13:57:55.367Z,100261.22
2024-03-08T14:00:26.239Z,100259.41
2024-03-08T14:02:55.997Z,100245.97
2024-03-08T14:05:24.188Z,100259.59
2024-03-08T14:07:55.434Z,100246.59
2024-03-08T14:10:24.567Z,100236.94
2024-03-08T14:12:52.824Z,100230.94
2024-03-08T14:15:21.566Z,100231.91
2024-03-08T14:17:56.627Z,100244.75
2024-03-08T14:20:26.760Z,100218.63
2024-03-08T14:22:55.983Z,100207.06
2024-03-08T14:25:24.911Z,100200.03
2024-03-08T14:27:54.749Z,100208.63
2024-03-08T14:30:36.523Z,100203.38
2024-03-08T14:33:10.226Z,100193.81
2024-03-08T14:35:38.384Z,100185.78
2024-03-08T14:38:09.749Z,100189.94
2024-03-08T14:40:39.243Z,100184.28
2024-03-08T14:43:07.558Z,100183.66
2024-03-08T14:45:36.031Z,100173.97
2024-03-08T14:48:05.866Z,100172.53
2024-03-08T14:50:38.111Z,100164.09
2024-03-08T14:53:08.011Z,100166.44
2024-03-08T14:55:36.381Z,100160.66
2024-03-08T14:58:05.411Z,100151.28
2024-03-08T15:00:35.990Z,100146.41
2024-03-08T15:03:06.091Z,100149.63
2024-03-08T15:05:39.390Z,100145.41
2024-03-08T15:08:12.738Z,100147.31
2024-03-08T15:10:43.148Z,100154.56
2024-03-08T15:13:17.386Z,100148.53
2024-03-08T15:15:46.784Z,100143.94
2024-03-08T15:18:15.180Z,100131.84
2024-03-08T15:20:44.542Z,100138.38
2024-03-08T15:23:12.497Z,100139.69
2024-03-08T15:25:43.262Z,100143.16
2024-03-08T15:28:15.855Z,100133.63
2024-03-08T15:30:47.851Z,100136.34
2024-03-08T15:33:25.301Z,100135.88
2024-03-08T15:36:00.024Z,100127.66
2024-03-08T15:38:29.408Z,100128.88
2024-03-08T15:40:57.885Z,100132.03
2024-03-08T15:43:26.418Z,100126.69
2024-03-08T15:45:55.766Z,100133.22
2024-03-08T15:48:23.754Z,100129.44
2024-03-08T15:50:52.082Z,100125.00
2024-03-08T15:53:21.471Z,100117.94
2024-03-08T15:55:50.468Z,100116.88
2024-03-08T15:58:18.491Z,100117.84
2024-03-08T16:00:49.119Z,100124.31
2024-03-08T16:03:17.433Z,100116.69
2024-03-08T16:05:46.269Z,100122.06
2024-03-08T16:08:17.767Z,100119.56
2024-03-08T16:10:51.053Z,100107.59
2024-03-08T16:13:23.779Z,100110.91
2024-03-08T16:15:53.092Z,100103.94
2024-03-08T16:18:23.724Z,100106.81
2024-03-08T16:20:52.962Z,100109.50
2024-03-08T16:23:21.188Z,100104.38
2024-03-08T16:25:50.898Z,100104.38
2024-03-08T16:28:19.685Z,100114.91
2024-03-08T16:30:49.542Z,100106.50
2024-03-08T16:33:19.477Z,100105.41
2024-03-08T16:35:47.914Z,100099.69
2024-03-08T16:38:17.486Z,100098.78
2024-03-08T16:40:48.557Z,100090.22
2024-03-08T16:43:20.008Z,100089.56
2024-03-08T16:45:51.770Z,100079.81
2024-03-08T16:48:25.439Z,100091.38
2024-03-08T16:50:55.616Z,100087.84
2024-03-08T16:53:25.192Z,100084.41
2024-03-08T16:55:54.086Z,100086.25
2024-03-08T16:58:24.797Z,100079.34
2024-03-08T17:00:52.757Z,100083.78
2024-03-08T17:03:21.918Z,100083.81
2024-03-08T17:05:55.310Z,100094.50
2024-03-08T17:08:24.700Z,100078.13
2024-03-08T17:10:53.503Z,100078.13
2024-03-08T17:13:23.420Z,100075.66
2024-03-08T17:15:51.336Z,100078.41
2024-03-08T17:18:19.724Z,100081.03
2024-03-08T17:20:47.737Z,100072.28
2024-03-08T17:23:17.155Z,100078.66
2024-03-08T17:25:47.601Z,100072.41
2024-03-08T17:28:16.529Z,100078.72
2024-03-08T17:30:47.992Z,100084.00
2024-03-08T17:33:22.680Z,100085.03
2024-03-08T17:35:53.784Z,100086.03
2024-03-08T17:38:25.537Z,100075.66
2024-03-08T17:40:53.739Z,100080.97
2024-03-08T17:43:24.905Z,100078.50
2024-03-08T17:45:56.590Z,100072.34
2024-03-08T17:48:24.683Z,100077.56
2024-03-08T17:50:55.058Z,100076.09
2024-03-08T17:53:23.132Z,100075.28
2024-03-08T17:55:53.063Z,100075.38
2024-03-08T17:58:21.766Z,100075.50
2024-03-08T18:00:52.405Z,100081.63
2024-03-08T18:03:28.857Z,100073.03
2024-03-08T18:05:57.521Z,100083.63
2024-03-08T18:08:25.497Z,100078.41
2024-03-08T18:10:53.992Z,100066.56
2024-03-08T18:13:22.550Z,100064.81
2024-03-08T18:15:50.774Z,100065.72
2024-03-08T18:18:19.132Z,100074.47
2024-03-08T18:20:49.949Z,100062.41
2024-03-08T18:23:21.739Z,100066.03
2024-03-08T18:25:49.922Z,100065.41
2024-03-08T18:28:19.399Z,100056.66
2024-03-08T18:30:50.694Z,100060.19
2024-03-08T18:33:19.736Z,100052.44
2024-03-08T18:35:49.447Z,100055.06
2024-03-08T18:38:19.724Z,100047.41
2024-03-08T18:40:49.144Z,100053.59
2024-03-08T18:43:18.284Z,100041.47
2024-03-08T18:45:46.790Z,100044.09
2024-03-08T18:48:15.281Z,100044.00
2024-03-08T18:50:46.380Z,100037.97
2024-03-08T18:53:15.887Z,100039.75
2024-03-08T18:55:44.555Z,100040.63
2024-03-08T18:58:12.767Z,100035.53
2024-03-08T19:00:42.474Z,100035.47
2024-03-08T19:03:11.126Z,100022.63
2024-03-08T19:05:41.714Z,100017.59
2024-03-08T19:08:10.789Z,100023.84
2024-03-08T19:10:41.725Z,100016.97
2024-03-08T19:13:12.286Z,100022.19
2024-03-08T19:15:40.178Z,100019.69
2024-03-08T19:18:09.644Z,100020.66
2024-03-08T19:20:38.667Z,100013.63
2024-03-08T19:23:07.877Z,100012.91
2024-03-08T19:25:42.182Z,100013.94
2024-03-08T19:28:14.261Z,100007.06
2024-03-08T19:30:42.732Z,100000.97
2024-03-08T19:33:13.969Z,99995.94
2024-03-08T19:35:43.412Z,99994.22
2024-03-08T19:38:13.122Z,99991.69
2024-03-08T19:40:43.808Z,99990.03
2024-03-08T19:43:16.344Z,99989.34
2024-03-08T19:45:46.413Z,99983.16
2024-03-08T19:48:19.438Z,99987.53
2024-03-08T19:50:49.340Z,99987.63
2024-03-08T19:53:18.980Z,99985.03
2024-03-08T19:55:52.167Z,99983.38
2024-03-08T19:58:22.930Z,99978.16
2024-03-08T20:00:51.551Z,99971.34
2024-03-08T20:03:24.637Z,99969.66
2024-03-08T20:05:55.061Z,99967.91
2024-03-08T20:08:25.218Z,99967.31
2024-03-08T20:10:53.979Z,99964.72
2024-03-08T20:13:23.538Z,99962.97
2024-03-08T20:15:55.442Z,99954.31
2024-03-08T20:18:27.773Z,99956.94
2024-03-08T20:20:56.203Z,99946.50
2024-03-08T20:23:25.150Z,99953.44
2024-03-08T20:25:53.466Z,99949.91
2024-03-08T20:28:22.899Z,99937.84
2024-03-08T20:30:52.029Z,99934.38
2024-03-08T20:33:20.350Z,99933.47
2024-03-08T20:35:51.278Z,99932.53
2024-03-08T20:38:22.081Z,99932.75
2024-03-08T20:40:51.525Z,99934.47
2024-03-08T20:43:22.860Z,99920.66
2024-03-08T20:45:53.796Z,99925.91
2024-03-08T20:48:22.772Z,99920.69
2024-03-08T20:50:52.359Z,99922.50
2024-03-08T20:53:20.929Z,99918.09
2024-03-08T20:55:51.391Z,99919.03
2024-03-08T20:58:19.985Z,99919.94
2024-03-08T21:00:55.459Z,99923.34
2024-03-08T21:03:28.297Z,99919.94
2024-03-08T21:05:57.364Z,99917.38
2024-03-08T21:08:29.628Z,99915.66
2024-03-08T21:10:59.624Z,99914.91
2024-03-08T21:13:28.481Z,99919.13
2024-03-08T21:15:57.385Z,99917.44
2024-03-08T21:18:27.865Z,99926.91
2024-03-08T21:20:56.840Z,99926.91
2024-03-08T21:23:26.303Z,99930.44
2024-03-08T21:25:54.601Z,99931.28
2024-03-08T21:28:30.137Z,99928.66
2024-03-08T21:31:00.256Z,99934.72
2024-03-08T21:33:29.574Z,99938.19
2024-03-08T21:35:57.446Z,99946.06
2024-03-08T21:38:26.829Z,99948.56
2024-03-08T21:41:02.464Z,99944.38
2024-03-08T21:43:34.509Z,99948.81
2024-03-08T21:46:03.072Z,99952.38
2024-03-08T21:48:33.695Z,99949.03
2024-03-08T21:51:01.834Z,99947.31
2024-03-08T21:53:34.764Z,99948.22
2024-03-08T21:56:04.778Z,99948.25
2024-03-08T21:58:34.191Z,99950.97
2024-03-08T22:01:02.297Z,99954.44
2024-03-08T22:03:32.726Z,99946.72
2024-03-08T22:06:05.392Z,99957.13
2024-03-08T22:08:34.471Z,99951.06
2024-03-08T22:11:02.726Z,99955.38
2024-03-08T22:13:30.832Z,99946.78
2024-03-08T22:15:58.804Z,99952.00
2024-03-08T22:18:31.297Z,99946.00
2024-03-08T22:20:59.311Z,99941.66
2024-03-08T22:23:28.557Z,99939.09
2024-03-08T22:25:56.496Z,99933.06
2024-03-08T22:28:26.988Z,99923.53
2024-03-08T22:30:55.658Z,99923.44
2024-03-08T22:33:25.770Z,99912.19
2024-03-08T22:35:55.185Z,99914.75
2024-03-08T22:38:23.757Z,99914.69
2024-03-08T22:40:53.080Z,99905.16
2024-03-08T22:43:21.213Z,99902.59
2024-03-08T22:45:50.266Z,99906.06
2024-03-08T22:48:18.267Z,99899.09
2024-03-08T22:50:46.580Z,99896.53
2024-03-08T22:53:15.278Z,99902.56
2024-03-08T22:55:43.646Z,99900.81
2024-03-08T22:58:15.415Z,99898.22
2024-03-08T23:00:56.909Z,99892.16
2024-03-08T23:03:25.302Z,99893.88
2024-03-08T23:05:53.976Z,99903.38
2024-03-08T23:08:22.300Z,99896.53
2024-03-08T23:10:50.646Z,99903.50
2024-03-08T23:13:20.612Z,99901.78
2024-03-08T23:15:48.445Z,99898.38
2024-03-08T23:18:16.501Z,99894.09
2024-03-08T23:20:44.513Z,99894.16
2024-03-08T23:23:13.534Z,99882.00
2024-03-08T23:25:42.876Z,99883.72
2024-03-08T23:28:13.248Z,99881.09
2024-03-08T23:30:45.643Z,99887.16
2024-03-08T23:33:16.043Z,99886.31
2024-03-08T23:35:45.786Z,99882.94
2024-03-08T23:38:14.177Z,99880.34
2024-03-08T23:40:42.490Z,99882.06
2024-03-08T23:43:10.478Z,99883.84
2024-03-08T23:45:39.198Z,99881.28
2024-03-08T23:48:11.607Z,99887.34
2024-03-08T23:50:39.790Z,99899.47
2024-03-08T23:53:08.644Z,99911.66
2024-03-08T23:55:38.882Z,99912.53
2024-03-08T23:58:10.254Z,99917.78
